Latest Weather Observations for Longerenong

IDV60801

Issued at 8:02 am EDT Sunday 1 February 2015 (issued every 30 minutes, with the page automatically refreshed every 10 minutes)

About weather observations | Map of weather stations | Latest weather observations for VIC | Other Formats
Station Details ID: 079028 Name: LONGERENONG Lat: -36.67 Lon: 142.30 Height: 133.0 m
Data from the previous 72 hours. | See also: Recent months at Longerenong
Date/Time
EDT
Temp
°C
App
Temp
°C
Dew
Point
Rel
Hum
%
Delta-T
°C
Wind Press
QNH
hPa
Press
MSL
hPa
Rain
since 9 am
mm
Dir
 
Spd
km/h
Gust
km/h
Spd
kts
Gust
kts
01/08:00am 14.4 - - - - S 22 32 12 17 - - 0.0
01/07:30am 13.4 - - - - SSE 20 28 11 15 - - 0.0
01/07:00am 13.2 - - - - S 20 28 11 15 - - 0.0
01/06:30am 12.8 - - - - S 13 17 7 9 - - 0.0
01/06:00am 12.9 - - - - S 13 19 7 10 - - 0.0
01/05:30am 13.1 - - - - S 13 19 7 10 - - 0.0
01/05:00am 13.1 - - - - S 15 20 8 11 - - 0.0
01/04:30am 13.3 - - - - S 20 28 11 15 - - 0.0
01/04:00am 13.7 - - - - S 19 28 10 15 - - 0.0
01/03:30am 13.9 - - - - S 15 22 8 12 - - 0.0
01/03:00am 14.1 - - - - S 26 35 14 19 - - 0.0
01/02:30am 14.1 - - - - S 22 35 12 19 - - 0.0
01/02:00am 14.1 - - - - S 24 35 13 19 - - 0.0
01/01:30am 13.9 - - - - SSE 20 32 11 17 - - 0.0
01/01:00am 13.7 - - - - S 20 28 11 15 - - 0.0
01/12:30am 14.0 - - - - S 26 37 14 20 - - 0.0
01/12:00am 14.7 - - - - S 24 35 13 19 - - 0.0
 
Date/Time
EDT
Temp
°C
App
Temp
°C
Dew
Point
Rel
Hum
%
Delta-T
°C
Wind Press
QNH
hPa
Press
MSL
hPa
Rain
since 9 am
mm
Dir
 
Spd
km/h
Gust
km/h
Spd
kts
Gust
kts
31/11:30pm 15.0 - - - - S 24 35 13 19 - - 0.0
31/11:00pm 15.1 - - - - S 26 37 14 20 - - 0.0
31/10:30pm 15.4 - - - - S 26 39 14 21 - - 0.0
31/10:00pm 16.0 - - - - S 24 33 13 18 - - 0.0
31/09:30pm 16.1 - - - - S 28 37 15 20 - - 0.0
31/09:00pm 16.2 - - - - S 28 37 15 20 - - 0.0
31/08:30pm 17.4 - - - - S 26 35 14 19 - - 0.0
31/08:00pm 17.7 - - - - S 26 35 14 19 - - 0.0
31/07:30pm 18.8 - - - - S 26 37 14 20 - - 0.0
31/07:00pm 19.5 - - - - SSE 28 43 15 23 - - 0.0
31/06:30pm 20.8 - - - - SSW 30 39 16 21 - - 0.0
31/06:00pm 20.5 - - - - S 30 39 16 21 - - 0.0
31/05:30pm 21.5 - - - - S 28 44 15 24 - - 0.0
31/05:00pm 21.1 - - - - S 32 43 17 23 - - 0.0
31/04:30pm 22.1 - - - - S 32 43 17 23 - - 0.0
31/04:08pm 22.6 - - - - SSW 33 54 18 29 - - 0.0
31/04:00pm 22.9 - - - - S 30 39 16 21 - - 0.0
31/03:33pm 22.7 - - - - S 28 48 15 26 - - 0.0
31/03:30pm 22.9 - - - - S 24 48 13 26 - - 0.0
31/03:00pm 23.1 - - - - SSE 20 32 11 17 - - 0.0
31/02:30pm 22.3 - - - - SSW 26 41 14 22 - - 0.0
31/02:19pm 21.9 - - - - S 28 46 15 25 - - 0.0
31/02:00pm 22.2 - - - - S 30 43 16 23 - - 0.0
31/01:30pm 21.9 - - - - SSW 22 37 12 20 - - 0.0
31/01:00pm 21.3 - - - - S 20 39 11 21 - - 0.0
31/12:30pm 20.3 - - - - S 19 32 10 17 - - 0.0
31/12:00pm 20.2 - - - - SSW 15 24 8 13 - - 0.0
31/11:30am 19.1 - - - - SSW 19 32 10 17 - - 0.0
31/11:00am 18.4 - - - - S 17 24 9 13 - - 0.0
31/10:30am 18.6 - - - - SSW 13 26 7 14 - - 0.0
31/10:00am 17.2 - - - - S 15 22 8 12 - - 0.0
31/09:30am 17.4 - - - - S 15 20 8 11 - - 0.0
31/09:00am 16.6 - - - - S 13 19 7 10 - - 0.0
31/08:30am 15.6 - - - - S 11 15 6 8 - - 0.0
31/08:00am 13.7 - - - - SSW 7 13 4 7 - - 0.0
31/07:30am 11.8 - - - - SSW 9 11 5 6 - - 0.0
31/07:00am 10.0 - - - - SSW 9 9 5 5 - - 0.0
31/06:30am 10.3 - - - - SSW 11 13 6 7 - - 0.0
31/06:00am 9.9 - - - - SSW 11 13 6 7 - - 0.0
31/05:30am 9.8 - - - - SW 9 9 5 5 - - 0.0
31/05:00am 10.1 - - - - SW 7 9 4 5 - - 0.0
31/04:30am 10.0 - - - - SSW 9 11 5 6 - - 0.0
31/04:00am 10.0 - - - - SSW 6 7 3 4 - - 0.0
31/03:30am 10.5 - - - - SSW 7 9 4 5 - - 0.0
31/03:00am 10.7 - - - - SSW 7 7 4 4 - - 0.0
31/02:30am 11.3 - - - - SSW 9 11 5 6 - - 0.0
31/02:00am 11.2 - - - - S 9 11 5 6 - - 0.0
31/01:30am 12.2 - - - - S 11 13 6 7 - - 0.0
31/01:00am 13.5 - - - - S 13 17 7 9 - - 0.0
31/12:30am 14.0 - - - - S 15 20 8 11 - - 0.0
31/12:00am 14.6 - - - - S 20 26 11 14 - - 0.0
 
Date/Time
EDT
Temp
°C
App
Temp
°C
Dew
Point
Rel
Hum
%
Delta-T
°C
Wind Press
QNH
hPa
Press
MSL
hPa
Rain
since 9 am
mm
Dir
 
Spd
km/h
Gust
km/h
Spd
kts
Gust
kts
30/11:30pm 15.0 - - - - S 20 32 11 17 - - 0.0
30/11:00pm 15.5 - - - - S 19 26 10 14 - - 0.0
30/10:30pm 16.2 - - - - S 20 30 11 16 - - 0.0
30/10:00pm 16.8 - - - - S 26 35 14 19 - - 0.0
30/09:30pm 17.9 - - - - S 26 35 14 19 - - 0.0
30/09:00pm 18.8 - - - - S 28 41 15 22 - - 0.0
30/08:30pm 20.2 - - - - SSW 26 39 14 21 - - 0.0
30/08:00pm 21.6 - - - - SSW 26 35 14 19 - - 0.0
30/07:30pm 22.6 - - - - SSW 26 35 14 19 - - 0.0
30/07:00pm 23.6 - - - - SSW 22 33 12 18 - - 0.0
30/06:30pm 23.9 - - - - S 19 26 10 14 - - 0.0
30/06:00pm 24.8 - - - - S 20 35 11 19 - - 0.0
30/05:30pm 24.2 - - - - S 20 35 11 19 - - 0.0
30/05:00pm 24.7 - - - - S 19 43 10 23 - - 0.0
30/04:30pm 24.1 - - - - SSW 20 32 11 17 - - 0.0
30/04:00pm 23.8 - - - - S 15 28 8 15 - - 0.0
30/03:30pm 24.4 - - - - S 15 24 8 13 - - 0.0
30/03:00pm 23.5 - - - - SSE 19 30 10 16 - - 0.0
30/02:30pm 22.1 - - - - SSE 13 20 7 11 - - 0.0
30/02:00pm 22.6 - - - - SSW 17 35 9 19 - - 0.0
30/01:30pm 22.7 - - - - SE 17 28 9 15 - - 0.0
30/01:00pm 22.2 - - - - SSE 19 32 10 17 - - 0.0
30/12:30pm 21.5 - - - - SSE 20 33 11 18 - - 0.0
30/12:00pm 20.8 - - - - SE 24 32 13 17 - - 0.0
30/11:30am 20.2 - - - - SE 22 32 12 17 - - 0.0
30/11:00am 19.4 - - - - SSE 22 32 12 17 - - 0.0
30/10:30am 18.6 - - - - SE 26 39 14 21 - - 0.0
30/10:00am 17.9 - - - - SE 26 39 14 21 - - 0.0
30/09:30am 16.9 - - - - SSE 26 33 14 18 - - 0.0
30/09:00am 16.1 - - - - SE 26 35 14 19 - - 0.0
30/08:30am 15.3 - - - - SSE 22 28 12 15 - - 0.0
30/08:00am 14.1 - - - - SSE 20 28 11 15 - - 0.0
30/07:30am 13.0 - - - - SSE 17 20 9 11 - - 0.0
30/07:00am 12.2 - - - - SE 13 19 7 10 - - 0.0
30/06:30am 11.9 - - - - SE 15 19 8 10 - - 0.0
30/06:00am 12.1 - - - - SE 15 20 8 11 - - 0.0
30/05:30am 12.1 - - - - SE 17 22 9 12 - - 0.0
30/05:00am 12.2 - - - - SE 17 24 9 13 - - 0.0
30/04:30am 12.2 - - - - SE 17 22 9 12 - - 0.0
30/04:00am 12.5 - - - - SSE 19 26 10 14 - - 0.0
30/03:30am 12.9 - - - - SSE 20 30 11 16 - - 0.0
30/03:00am 13.1 - - - - SE 19 26 10 14 - - 0.0
30/02:30am 13.2 - - - - SE 20 28 11 15 - - 0.0
30/02:00am 13.3 - - - - SE 19 24 10 13 - - 0.0
30/01:30am 13.6 - - - - SSE 20 32 11 17 - - 0.0
30/01:00am 14.1 - - - - SE 22 32 12 17 - - 0.0
30/12:30am 14.4 - - - - SE 22 28 12 15 - - 0.0
30/12:00am 15.1 - - - - SE 20 28 11 15 - - 0.0
 
Date/Time
EDT
Temp
°C
App
Temp
°C
Dew
Point
Rel
Hum
%
Delta-T
°C
Wind Press
QNH
hPa
Press
MSL
hPa
Rain
since 9 am
mm
Dir
 
Spd
km/h
Gust
km/h
Spd
kts
Gust
kts
29/11:30pm 15.8 - - - - SE 22 30 12 16 - - 0.0
29/11:00pm 16.3 - - - - SE 19 30 10 16 - - 0.0
29/10:30pm 17.1 - - - - SE 26 33 14 18 - - 0.0
29/10:00pm 17.9 - - - - SE 24 32 13 17 - - 0.0
29/09:30pm 18.9 - - - - SE 28 39 15 21 - - 0.0
29/09:00pm 19.6 - - - - SE 30 43 16 23 - - 0.0
29/08:30pm 20.7 - - - - SE 30 39 16 21 - - 0.0
29/08:00pm 21.8 - - - - SE 30 44 16 24 - - 0.0
29/07:30pm 22.7 - - - - SE 33 43 18 23 - - 0.0
29/07:16pm 23.1 - - - - SE 33 52 18 28 - - 0.0
29/07:00pm 23.5 - - - - SE 35 46 19 25 - - 0.0
29/06:30pm 24.0 - - - - SE 32 44 17 24 - - 0.0
29/06:00pm 24.6 - - - - SE 33 44 18 24 - - 0.0
29/05:30pm 24.5 - - - - SE 30 43 16 23 - - 0.0
29/05:00pm 25.9 - - - - SE 28 37 15 20 - - 0.0
29/04:30pm 24.8 - - - - SSE 30 43 16 23 - - 0.0
29/04:00pm 24.9 - - - - SSE 30 46 16 25 - - 0.0
29/03:30pm 24.8 - - - - SSE 28 41 15 22 - - 0.0
29/03:00pm 25.3 - - - - SE 30 43 16 23 - - 0.0
29/02:39pm 24.9 - - - - SSE 28 50 15 27 - - 0.0
29/02:30pm 24.2 - - - - SSE 24 39 13 21 - - 0.0
29/02:00pm 24.1 - - - - SE 28 39 15 21 - - 0.0
29/01:49pm 23.7 - - - - SE 28 46 15 25 - - 0.0
29/01:30pm 24.3 - - - - SE 24 39 13 21 - - 0.0
29/01:00pm 24.1 - - - - SSE 28 41 15 22 - - 0.0
29/12:30pm 22.5 - - - - SE 24 43 13 23 - - 0.0
29/12:18pm 22.8 - - - - SE 28 61 15 33 - - 0.0
29/12:00pm 21.9 - - - - SE 30 44 16 24 - - 0.0
29/11:30am 21.2 - - - - SE 30 43 16 23 - - 0.0
29/11:00am 20.2 - - - - SE 30 43 16 23 - - 0.0
29/10:30am 19.4 - - - - SE 32 43 17 23 - - 0.0
29/10:00am 18.2 - - - - SE 33 44 18 24 - - 0.0
29/09:30am 17.5 - - - - SE 33 46 18 25 - - 0.0
29/09:00am 16.5 - - - - SE 26 41 14 22 - - 0.0
29/08:30am 15.4 - - - - SE 22 33 12 18 - - 0.0

Other Formats:

Comma delimited format used in spreadsheet applications
http://www.bom.gov.au/fwo/IDV60801/IDV60801.95835.axf

JavaScript Object Notation format (JSON) in row-major order
http://www.bom.gov.au/fwo/IDV60801/IDV60801.95835.json